createdAt,value
2017-11-15T00:00:29.441Z,1018.22
2017-11-15T00:01:10.017Z,1018.27
2017-11-15T00:01:50.581Z,1018.28
2017-11-15T00:02:31.197Z,1018.3
2017-11-15T00:03:11.778Z,1018.26
2017-11-15T00:03:52.399Z,1018.28
2017-11-15T00:04:33.008Z,1018.24
2017-11-15T00:05:13.660Z,1018.33
2017-11-15T00:05:54.253Z,1018.26
2017-11-15T00:06:34.829Z,1018.28
2017-11-15T00:07:15.406Z,1018.25
2017-11-15T00:07:56.058Z,1018.29
2017-11-15T00:08:36.748Z,1018.27
2017-11-15T00:09:17.364Z,1018.3
2017-11-15T00:09:57.970Z,1018.3
2017-11-15T00:10:38.548Z,1018.32
2017-11-15T00:11:19.131Z,1018.3
2017-11-15T00:11:59.747Z,1018.31
2017-11-15T00:12:40.316Z,1018.32
2017-11-15T00:13:20.920Z,1018.32
2017-11-15T00:14:01.518Z,1018.34
2017-11-15T00:14:42.085Z,1018.31
2017-11-15T00:15:22.687Z,1018.34
2017-11-15T00:16:03.267Z,1018.35
2017-11-15T00:16:43.847Z,1018.34
2017-11-15T00:17:24.459Z,1018.35
2017-11-15T00:18:05.046Z,1018.36
2017-11-15T00:18:45.676Z,1018.36
2017-11-15T00:19:26.254Z,1018.34
2017-11-15T00:20:06.856Z,1018.32
2017-11-15T00:20:47.451Z,1018.36
2017-11-15T00:21:28.025Z,1018.41
2017-11-15T00:22:08.601Z,1018.37
2017-11-15T00:22:49.175Z,1018.4
2017-11-15T00:23:29.760Z,1018.36
2017-11-15T00:24:10.409Z,1018.43
2017-11-15T00:24:50.991Z,1018.4
2017-11-15T00:25:31.580Z,1018.44
2017-11-15T00:26:12.167Z,1018.43
2017-11-15T00:26:52.765Z,1018.4
2017-11-15T00:27:33.345Z,1018.4
2017-11-15T00:28:13.970Z,1018.45
2017-11-15T00:28:54.557Z,1018.42
2017-11-15T00:29:35.155Z,1018.42
2017-11-15T00:30:15.748Z,1018.43
2017-11-15T00:30:56.396Z,1018.44
2017-11-15T00:31:37.016Z,1018.41
2017-11-15T00:32:17.645Z,1018.4
2017-11-15T00:32:58.269Z,1018.38
2017-11-15T00:33:38.928Z,1018.4
2017-11-15T00:34:19.507Z,1018.4
2017-11-15T00:35:00.100Z,1018.46
2017-11-15T00:35:40.660Z,1018.39
2017-11-15T00:36:21.237Z,1018.44
2017-11-15T00:37:01.816Z,1018.44
2017-11-15T00:37:42.411Z,1018.44
2017-11-15T00:38:23.026Z,1018.44
2017-11-15T00:39:03.640Z,1018.48
2017-11-15T00:39:44.317Z,1018.49
2017-11-15T00:40:24.975Z,1018.44
2017-11-15T00:41:05.513Z,1018.48
2017-11-15T00:41:46.118Z,1018.51
2017-11-15T00:42:26.794Z,1018.47
2017-11-15T00:43:07.344Z,1018.52
2017-11-15T00:43:47.929Z,1018.55
2017-11-15T00:44:28.535Z,1018.56
2017-11-15T00:45:09.116Z,1018.56
2017-11-15T00:45:49.700Z,1018.56
2017-11-15T00:46:30.275Z,1018.53
2017-11-15T00:47:10.857Z,1018.59
2017-11-15T00:47:51.486Z,1018.59
2017-11-15T00:48:32.061Z,1018.61
2017-11-15T00:49:12.649Z,1018.61
2017-11-15T00:49:53.244Z,1018.58
2017-11-15T00:50:33.844Z,1018.61
2017-11-15T00:51:14.460Z,1018.56
2017-11-15T00:51:55.057Z,1018.57
2017-11-15T00:52:35.700Z,1018.57
2017-11-15T00:53:16.293Z,1018.53
2017-11-15T00:53:56.890Z,1018.56
2017-11-15T00:54:37.496Z,1018.56
2017-11-15T00:55:18.092Z,1018.61
2017-11-15T00:55:58.677Z,1018.56
2017-11-15T00:56:39.281Z,1018.56
2017-11-15T00:57:19.879Z,1018.58
2017-11-15T00:58:00.474Z,1018.6
2017-11-15T00:58:41.051Z,1018.57
2017-11-15T00:59:21.654Z,1018.58
2017-11-15T01:00:02.217Z,1018.62
2017-11-15T01:00:42.796Z,1018.62
2017-11-15T01:01:23.400Z,1018.63
2017-11-15T01:02:04.008Z,1018.61
2017-11-15T01:02:44.620Z,1018.63
2017-11-15T01:03:25.206Z,1018.61
2017-11-15T01:04:05.792Z,1018.62
2017-11-15T01:04:46.426Z,1018.62
2017-11-15T01:05:27.021Z,1018.63
2017-11-15T01:06:07.614Z,1018.62
2017-11-15T01:06:48.183Z,1018.63
2017-11-15T01:07:28.764Z,1018.58
2017-11-15T01:08:09.385Z,1018.61
2017-11-15T01:08:49.960Z,1018.63
2017-11-15T01:09:30.526Z,1018.64
2017-11-15T01:10:11.112Z,1018.64
2017-11-15T01:10:51.685Z,1018.62
2017-11-15T01:11:32.280Z,1018.6
2017-11-15T01:12:12.855Z,1018.59
2017-11-15T01:12:53.416Z,1018.58
2017-11-15T01:13:34.001Z,1018.62
2017-11-15T01:14:14.579Z,1018.58
2017-11-15T01:14:55.162Z,1018.64
2017-11-15T01:15:35.739Z,1018.64
2017-11-15T01:16:16.311Z,1018.6
2017-11-15T01:16:56.959Z,1018.62
2017-11-15T01:17:37.590Z,1018.62
2017-11-15T01:18:18.211Z,1018.63
2017-11-15T01:18:58.824Z,1018.69
2017-11-15T01:19:39.392Z,1018.71
2017-11-15T01:20:19.970Z,1018.69
2017-11-15T01:21:00.538Z,1018.68
2017-11-15T01:21:41.102Z,1018.68
2017-11-15T01:22:21.665Z,1018.71
2017-11-15T01:23:02.218Z,1018.7
2017-11-15T01:23:42.790Z,1018.67
2017-11-15T01:24:23.372Z,1018.77
2017-11-15T01:25:03.945Z,1018.74
2017-11-15T01:25:44.533Z,1018.74
2017-11-15T01:26:25.134Z,1018.75
2017-11-15T01:27:05.739Z,1018.72
2017-11-15T01:27:46.312Z,1018.73
2017-11-15T01:28:26.927Z,1018.78
2017-11-15T01:29:07.541Z,1018.79
2017-11-15T01:29:48.116Z,1018.81
2017-11-15T01:30:28.694Z,1018.82
2017-11-15T01:31:09.309Z,1018.83
2017-11-15T01:31:49.896Z,1018.82
2017-11-15T01:32:30.495Z,1018.82
2017-11-15T01:33:11.067Z,1018.82
2017-11-15T01:33:51.631Z,1018.81
2017-11-15T01:34:32.205Z,1018.84
2017-11-15T01:35:12.774Z,1018.82
2017-11-15T01:35:53.347Z,1018.87
2017-11-15T01:36:33.923Z,1018.81
2017-11-15T01:37:14.517Z,1018.82
2017-11-15T01:37:55.098Z,1018.84
2017-11-15T01:38:35.713Z,1018.82
2017-11-15T01:39:16.270Z,1018.81
2017-11-15T01:39:56.840Z,1018.81
2017-11-15T01:40:37.428Z,1018.78
2017-11-15T01:41:18.018Z,1018.79
2017-11-15T01:41:58.598Z,1018.79
2017-11-15T01:42:39.191Z,1018.82
2017-11-15T01:43:19.811Z,1018.82
2017-11-15T01:44:00.389Z,1018.81
2017-11-15T01:44:40.977Z,1018.85
2017-11-15T01:45:21.554Z,1018.76
2017-11-15T01:46:02.129Z,1018.8
2017-11-15T01:46:42.705Z,1018.78
2017-11-15T01:47:23.291Z,1018.8
2017-11-15T01:48:03.901Z,1018.81
2017-11-15T01:48:44.492Z,1018.79
2017-11-15T01:49:25.099Z,1018.76
2017-11-15T01:50:05.727Z,1018.78
2017-11-15T01:50:46.301Z,1018.8
2017-11-15T01:51:26.880Z,1018.78
2017-11-15T01:52:07.462Z,1018.8
2017-11-15T01:52:48.053Z,1018.81
2017-11-15T01:53:28.652Z,1018.81
2017-11-15T01:54:09.271Z,1018.77
2017-11-15T01:54:49.880Z,1018.74
2017-11-15T01:55:30.495Z,1018.81
2017-11-15T01:56:11.107Z,1018.83
2017-11-15T01:56:51.673Z,1018.88
2017-11-15T01:57:32.263Z,1018.9
2017-11-15T01:58:12.851Z,1018.87
2017-11-15T01:58:53.437Z,1018.88
2017-11-15T01:59:34.039Z,1018.85
2017-11-15T02:00:14.644Z,1018.92
2017-11-15T02:00:55.250Z,1018.89
2017-11-15T02:01:35.828Z,1018.94
2017-11-15T02:02:16.415Z,1018.94
2017-11-15T02:02:57.002Z,1018.91
2017-11-15T02:03:37.589Z,1018.93
2017-11-15T02:04:18.146Z,1018.89
2017-11-15T02:04:58.721Z,1018.88
2017-11-15T02:05:39.316Z,1018.84
2017-11-15T02:06:19.909Z,1018.84
2017-11-15T02:07:00.490Z,1018.8
2017-11-15T02:07:41.064Z,1018.86
2017-11-15T02:08:21.636Z,1018.77
2017-11-15T02:09:02.196Z,1018.8
2017-11-15T02:09:42.781Z,1018.75
2017-11-15T02:10:23.364Z,1018.74
2017-11-15T02:11:03.975Z,1018.73
2017-11-15T02:11:44.558Z,1018.74
2017-11-15T02:12:25.154Z,1018.71
2017-11-15T02:13:05.739Z,1018.72
2017-11-15T02:13:46.320Z,1018.71
2017-11-15T02:14:26.899Z,1018.75
2017-11-15T02:15:07.479Z,1018.72
2017-11-15T02:15:48.050Z,1018.71
2017-11-15T02:16:28.685Z,1018.72
2017-11-15T02:17:09.246Z,1018.7
2017-11-15T02:17:49.835Z,1018.82
2017-11-15T02:18:30.417Z,1018.73
2017-11-15T02:19:11.004Z,1018.73
2017-11-15T02:19:51.581Z,1018.73
2017-11-15T02:20:32.169Z,1018.74
2017-11-15T02:21:12.749Z,1018.72
2017-11-15T02:21:53.347Z,1018.76
2017-11-15T02:22:33.925Z,1018.79
2017-11-15T02:23:14.499Z,1018.84
2017-11-15T02:23:55.121Z,1018.83
2017-11-15T02:24:35.684Z,1018.8
2017-11-15T02:25:16.272Z,1018.8
2017-11-15T02:25:56.840Z,1018.82
2017-11-15T02:26:37.398Z,1018.82
2017-11-15T02:27:17.960Z,1018.89
2017-11-15T02:27:58.532Z,1018.85
2017-11-15T02:28:39.122Z,1018.82
2017-11-15T02:29:19.733Z,1018.86
2017-11-15T02:30:00.288Z,1018.81
2017-11-15T02:30:40.944Z,1018.87
2017-11-15T02:31:21.523Z,1018.83
2017-11-15T02:32:02.119Z,1018.85
2017-11-15T02:32:42.725Z,1018.86
2017-11-15T02:33:23.310Z,1018.85
2017-11-15T02:34:03.896Z,1018.86
2017-11-15T02:34:44.469Z,1018.84
2017-11-15T02:35:25.067Z,1018.83
2017-11-15T02:36:05.680Z,1018.83
2017-11-15T02:36:46.260Z,1018.83
2017-11-15T02:37:26.870Z,1018.81
2017-11-15T02:38:07.427Z,1018.78
2017-11-15T02:38:47.985Z,1018.83
2017-11-15T02:39:28.552Z,1018.85
2017-11-15T02:40:09.166Z,1018.81
2017-11-15T02:40:49.832Z,1018.84
2017-11-15T02:41:30.443Z,1018.81
2017-11-15T02:42:11.005Z,1018.8
2017-11-15T02:42:51.588Z,1018.81
2017-11-15T02:43:32.171Z,1018.8
2017-11-15T02:44:12.736Z,1018.85
2017-11-15T02:44:53.332Z,1018.87
2017-11-15T02:45:33.953Z,1018.85
2017-11-15T02:46:14.521Z,1018.89
2017-11-15T02:46:55.212Z,1018.83
2017-11-15T02:47:35.780Z,1018.85
2017-11-15T02:48:16.354Z,1018.84
2017-11-15T02:48:56.928Z,1018.83
2017-11-15T02:49:37.507Z,1018.83
2017-11-15T02:50:18.099Z,1018.83
2017-11-15T02:50:58.659Z,1018.82
2017-11-15T02:51:39.246Z,1018.82
2017-11-15T02:52:19.820Z,1018.83
2017-11-15T02:53:00.409Z,1018.8
2017-11-15T02:53:40.984Z,1018.81
2017-11-15T02:54:21.563Z,1018.81
2017-11-15T02:55:02.151Z,1018.82
2017-11-15T02:55:42.736Z,1018.87
2017-11-15T02:56:23.331Z,1018.86
2017-11-15T02:57:03.897Z,1018.82
2017-11-15T02:57:44.484Z,1018.85
2017-11-15T02:58:25.061Z,1018.86
2017-11-15T02:59:05.617Z,1018.87
2017-11-15T02:59:46.180Z,1018.81
2017-11-15T03:00:26.759Z,1018.83
2017-11-15T03:01:07.318Z,1018.83
2017-11-15T03:01:47.919Z,1018.82
2017-11-15T03:02:28.493Z,1018.81
2017-11-15T03:03:09.080Z,1018.83
2017-11-15T03:03:49.653Z,1018.83
2017-11-15T03:04:30.268Z,1018.83
2017-11-15T03:05:10.830Z,1018.84
2017-11-15T03:05:51.441Z,1018.86
2017-11-15T03:06:32.020Z,1018.86
2017-11-15T03:07:12.580Z,1018.83
2017-11-15T03:07:53.144Z,1018.86
2017-11-15T03:08:33.757Z,1018.85
2017-11-15T03:09:14.303Z,1018.81
2017-11-15T03:09:54.890Z,1018.84
2017-11-15T03:10:35.491Z,1018.9
2017-11-15T03:11:16.069Z,1018.89
2017-11-15T03:11:56.645Z,1018.87
2017-11-15T03:12:37.222Z,1018.87
2017-11-15T03:13:17.789Z,1018.85
2017-11-15T03:13:58.350Z,1018.84
2017-11-15T03:14:38.920Z,1018.82
2017-11-15T03:15:19.563Z,1018.82
2017-11-15T03:16:00.171Z,1018.78
2017-11-15T03:16:40.753Z,1018.79
2017-11-15T03:17:21.350Z,1018.81
2017-11-15T03:18:01.921Z,1018.83
2017-11-15T03:18:42.492Z,1018.85
2017-11-15T03:19:23.067Z,1018.83
2017-11-15T03:20:03.665Z,1018.81
2017-11-15T03:20:44.254Z,1018.79
2017-11-15T03:21:24.851Z,1018.78
2017-11-15T03:22:05.446Z,1018.73
2017-11-15T03:22:46.036Z,1018.74
2017-11-15T03:23:26.603Z,1018.77
2017-11-15T03:24:07.164Z,1018.74
2017-11-15T03:24:47.734Z,1018.75
2017-11-15T03:25:28.313Z,1018.76
2017-11-15T03:26:08.864Z,1018.76
2017-11-15T03:26:49.425Z,1018.78
2017-11-15T03:27:30.035Z,1018.77
2017-11-15T03:28:10.603Z,1018.77
2017-11-15T03:28:51.170Z,1018.76
2017-11-15T03:29:31.761Z,1018.74
2017-11-15T03:30:12.362Z,1018.74
2017-11-15T03:30:52.942Z,1018.77
2017-11-15T03:31:33.488Z,1018.73
2017-11-15T03:32:14.178Z,1018.72
2017-11-15T03:32:54.723Z,1018.7
2017-11-15T03:33:35.295Z,1018.75
2017-11-15T03:34:15.902Z,1018.73
2017-11-15T03:34:56.501Z,1018.74
2017-11-15T03:35:37.089Z,1018.73
2017-11-15T03:36:17.675Z,1018.73
2017-11-15T03:36:58.274Z,1018.7
2017-11-15T03:37:38.854Z,1018.7
2017-11-15T03:38:19.440Z,1018.71
2017-11-15T03:39:00.065Z,1018.74
2017-11-15T03:39:40.655Z,1018.71
2017-11-15T03:40:21.254Z,1018.69
2017-11-15T03:41:01.847Z,1018.72
2017-11-15T03:41:42.437Z,1018.71
2017-11-15T03:42:23.009Z,1018.69
2017-11-15T03:43:03.600Z,1018.71
2017-11-15T03:43:44.204Z,1018.7
2017-11-15T03:44:24.768Z,1018.71
2017-11-15T03:45:05.355Z,1018.71
2017-11-15T03:45:45.950Z,1018.72
2017-11-15T03:46:26.539Z,1018.72
2017-11-15T03:47:07.120Z,1018.68
2017-11-15T03:47:47.719Z,1018.7
2017-11-15T03:48:28.316Z,1018.7
2017-11-15T03:49:08.893Z,1018.69
2017-11-15T03:49:49.454Z,1018.72
2017-11-15T03:50:30.092Z,1018.7
2017-11-15T03:51:10.729Z,1018.72
2017-11-15T03:51:51.331Z,1018.71
2017-11-15T03:52:31.928Z,1018.71
2017-11-15T03:53:12.503Z,1018.71
2017-11-15T03:53:53.090Z,1018.72
2017-11-15T03:54:33.676Z,1018.7
2017-11-15T03:55:14.250Z,1018.7
2017-11-15T03:55:54.825Z,1018.71
2017-11-15T03:56:35.395Z,1018.69
2017-11-15T03:57:15.995Z,1018.7
2017-11-15T03:57:56.584Z,1018.72
2017-11-15T03:58:37.151Z,1018.69
2017-11-15T03:59:17.733Z,1018.69
2017-11-15T03:59:58.324Z,1018.66
2017-11-15T04:00:38.888Z,1018.69
2017-11-15T04:01:19.484Z,1018.69
2017-11-15T04:02:00.117Z,1018.67
2017-11-15T04:02:40.694Z,1018.68
2017-11-15T04:03:21.302Z,1018.68
2017-11-15T04:04:01.892Z,1018.68
2017-11-15T04:04:42.467Z,1018.69
2017-11-15T04:05:23.069Z,1018.69
2017-11-15T04:06:03.641Z,1018.7
2017-11-15T04:06:44.232Z,1018.69
2017-11-15T04:07:24.814Z,1018.7
2017-11-15T04:08:05.432Z,1018.69
2017-11-15T04:08:46.047Z,1018.65
2017-11-15T04:09:26.636Z,1018.66
2017-11-15T04:10:07.212Z,1018.73
2017-11-15T04:10:47.781Z,1018.67
2017-11-15T04:11:28.357Z,1018.67
2017-11-15T04:12:08.931Z,1018.72
2017-11-15T04:12:49.531Z,1018.74
2017-11-15T04:13:30.163Z,1018.66
2017-11-15T04:14:10.750Z,1018.67
2017-11-15T04:14:51.378Z,1018.64
2017-11-15T04:15:31.968Z,1018.66
2017-11-15T04:16:12.570Z,1018.67
2017-11-15T04:16:53.169Z,1018.61
2017-11-15T04:17:33.750Z,1018.64
2017-11-15T04:18:14.389Z,1018.63
2017-11-15T04:18:55.009Z,1018.61
2017-11-15T04:19:35.594Z,1018.59
2017-11-15T04:20:16.212Z,1018.62
2017-11-15T04:20:56.786Z,1018.64
2017-11-15T04:21:37.379Z,1018.65
2017-11-15T04:22:17.945Z,1018.61
2017-11-15T04:22:58.518Z,1018.59
2017-11-15T04:23:39.069Z,1018.6
2017-11-15T04:24:19.646Z,1018.62
2017-11-15T04:25:00.252Z,1018.62
2017-11-15T04:25:40.840Z,1018.65
2017-11-15T04:26:21.470Z,1018.63
2017-11-15T04:27:02.069Z,1018.57
2017-11-15T04:27:42.631Z,1018.53
2017-11-15T04:28:23.198Z,1018.52
2017-11-15T04:29:03.781Z,1018.55
2017-11-15T04:29:44.373Z,1018.57
2017-11-15T04:30:24.965Z,1018.6
2017-11-15T04:31:05.556Z,1018.6
2017-11-15T04:31:46.164Z,1018.56
2017-11-15T04:32:26.739Z,1018.58
2017-11-15T04:33:07.337Z,1018.58
2017-11-15T04:33:47.921Z,1018.58
2017-11-15T04:34:28.503Z,1018.6
2017-11-15T04:35:09.081Z,1018.64
2017-11-15T04:35:49.673Z,1018.6
2017-11-15T04:36:30.308Z,1018.6
2017-11-15T04:37:10.909Z,1018.62
2017-11-15T04:37:51.547Z,1018.63
2017-11-15T04:38:32.144Z,1018.61
2017-11-15T04:39:12.732Z,1018.64
2017-11-15T04:39:53.335Z,1018.64
2017-11-15T04:40:33.968Z,1018.63
2017-11-15T04:41:14.556Z,1018.62
2017-11-15T04:41:55.140Z,1018.62
2017-11-15T04:42:35.718Z,1018.61
2017-11-15T04:43:16.336Z,1018.65
2017-11-15T04:43:56.912Z,1018.61
2017-11-15T04:44:37.482Z,1018.66
2017-11-15T04:45:18.056Z,1018.66
2017-11-15T04:45:58.658Z,1018.64
2017-11-15T04:46:39.228Z,1018.65
2017-11-15T04:47:19.797Z,1018.65
2017-11-15T04:48:00.388Z,1018.66
2017-11-15T04:48:40.961Z,1018.67
2017-11-15T04:49:21.534Z,1018.7
2017-11-15T04:50:02.123Z,1018.69
2017-11-15T04:50:42.697Z,1018.67
2017-11-15T04:51:23.279Z,1018.7
2017-11-15T04:52:03.852Z,1018.72
2017-11-15T04:52:44.447Z,1018.76
2017-11-15T04:53:25.016Z,1018.75
2017-11-15T04:54:05.609Z,1018.8
2017-11-15T04:54:46.179Z,1018.78
2017-11-15T04:55:26.776Z,1018.78
2017-11-15T04:56:07.342Z,1018.76
2017-11-15T04:56:47.920Z,1018.78
2017-11-15T04:57:28.500Z,1018.78
2017-11-15T04:58:09.076Z,1018.79
2017-11-15T04:58:49.652Z,1018.81
2017-11-15T04:59:30.238Z,1018.79
2017-11-15T05:00:10.830Z,1018.76
2017-11-15T05:00:51.380Z,1018.75
2017-11-15T05:01:31.992Z,1018.72
2017-11-15T05:02:12.574Z,1018.76
2017-11-15T05:02:53.165Z,1018.79
2017-11-15T05:03:33.787Z,1018.86
2017-11-15T05:04:14.368Z,1018.87
2017-11-15T05:04:54.932Z,1018.86
2017-11-15T05:05:35.505Z,1018.83
2017-11-15T05:06:16.067Z,1018.85
2017-11-15T05:06:56.649Z,1018.88
2017-11-15T05:07:37.227Z,1018.88
2017-11-15T05:08:17.791Z,1018.9
2017-11-15T05:08:58.359Z,1018.91
2017-11-15T05:09:38.939Z,1018.9
2017-11-15T05:10:19.510Z,1018.91
2017-11-15T05:11:00.063Z,1018.89
2017-11-15T05:11:40.647Z,1018.93
2017-11-15T05:12:21.196Z,1018.86
2017-11-15T05:13:01.757Z,1018.88
2017-11-15T05:13:42.319Z,1018.93
2017-11-15T05:14:22.902Z,1018.97
2017-11-15T05:15:03.466Z,1018.96
2017-11-15T05:15:44.028Z,1018.94
2017-11-15T05:16:24.608Z,1018.95
2017-11-15T05:17:05.182Z,1018.95
2017-11-15T05:17:45.764Z,1018.91
2017-11-15T05:18:26.345Z,1018.9
2017-11-15T05:19:06.916Z,1018.91
2017-11-15T05:19:47.482Z,1018.95
2017-11-15T05:20:28.068Z,1018.94
2017-11-15T05:21:08.638Z,1018.89
2017-11-15T05:21:49.204Z,1018.9
2017-11-15T05:22:29.796Z,1018.91
2017-11-15T05:23:10.394Z,1018.91
2017-11-15T05:23:50.959Z,1018.92
2017-11-15T05:24:31.536Z,1018.95
2017-11-15T05:25:12.101Z,1018.91
2017-11-15T05:25:52.665Z,1018.94
2017-11-15T05:26:33.247Z,1018.96
2017-11-15T05:27:13.814Z,1019
2017-11-15T05:27:54.751Z,1018.95
2017-11-15T05:28:35.420Z,1018.98
2017-11-15T05:29:16.029Z,1018.98
2017-11-15T05:29:56.608Z,1018.94
2017-11-15T05:30:37.174Z,1018.94
2017-11-15T05:31:17.761Z,1018.97
2017-11-15T05:31:58.328Z,1018.95
2017-11-15T05:32:38.901Z,1018.94
2017-11-15T05:33:19.475Z,1018.98
2017-11-15T05:34:00.041Z,1018.96
2017-11-15T05:34:40.611Z,1018.93
2017-11-15T05:35:21.176Z,1018.97
2017-11-15T05:36:01.778Z,1018.93
2017-11-15T05:36:42.398Z,1018.95
2017-11-15T05:37:22.937Z,1018.98
2017-11-15T05:38:03.518Z,1018.97
2017-11-15T05:38:44.081Z,1018.92
2017-11-15T05:39:24.662Z,1018.92
2017-11-15T05:40:05.231Z,1018.93
2017-11-15T05:40:45.815Z,1018.89
2017-11-15T05:41:26.440Z,1018.93
2017-11-15T05:42:06.992Z,1018.91
2017-11-15T05:42:47.593Z,1018.89
2017-11-15T05:43:28.202Z,1018.87
2017-11-15T05:44:08.792Z,1018.9
2017-11-15T05:44:49.359Z,1018.9
2017-11-15T05:45:29.937Z,1018.91
2017-11-15T05:46:10.503Z,1018.92
2017-11-15T05:46:51.113Z,1018.92
2017-11-15T05:47:31.676Z,1018.93
2017-11-15T05:48:12.253Z,1018.88
2017-11-15T05:48:52.868Z,1018.92
2017-11-15T05:49:33.418Z,1018.91
2017-11-15T05:50:14.014Z,1018.92
2017-11-15T05:50:54.568Z,1018.92
2017-11-15T05:51:35.141Z,1018.89
2017-11-15T05:52:15.707Z,1018.91
2017-11-15T05:52:56.282Z,1018.9
2017-11-15T05:53:36.913Z,1018.95
2017-11-15T05:54:17.466Z,1018.97
2017-11-15T05:54:58.039Z,1019
2017-11-15T05:55:38.611Z,1018.98
2017-11-15T05:56:19.172Z,1018.96
2017-11-15T05:56:59.751Z,1019.01
2017-11-15T05:57:40.373Z,1018.97
2017-11-15T05:58:20.959Z,1018.98
2017-11-15T05:59:01.519Z,1018.97
2017-11-15T05:59:42.098Z,1019.01
2017-11-15T06:00:22.665Z,1018.97
2017-11-15T06:01:03.238Z,1019.01
2017-11-15T06:01:43.814Z,1019.01
2017-11-15T06:02:24.421Z,1019.03
2017-11-15T06:03:04.985Z,1019.03
2017-11-15T06:03:45.580Z,1019.06
2017-11-15T06:04:26.147Z,1019.07
2017-11-15T06:05:06.734Z,1019.12
2017-11-15T06:05:47.331Z,1019.1
2017-11-15T06:06:27.929Z,1019.12
2017-11-15T06:07:08.517Z,1019.1
2017-11-15T06:07:49.077Z,1019.09
2017-11-15T06:08:30.299Z,1019.15
2017-11-15T06:09:10.862Z,1019.15
2017-11-15T06:09:51.447Z,1019.1
2017-11-15T06:10:32.048Z,1019.12
2017-11-15T06:11:12.627Z,1019.1
2017-11-15T06:11:53.260Z,1019.12
2017-11-15T06:12:33.729Z,1019.16
2017-11-15T06:13:14.333Z,1019.14
2017-11-15T06:13:54.949Z,1019.14
2017-11-15T06:14:35.600Z,1019.13
2017-11-15T06:15:16.163Z,1019.14
2017-11-15T06:15:56.642Z,1019.15
2017-11-15T06:16:37.258Z,1019.15
2017-11-15T06:17:17.836Z,1019.18
2017-11-15T06:17:58.542Z,1019.17
2017-11-15T06:18:39.016Z,1019.17
2017-11-15T06:19:19.616Z,1019.21
2017-11-15T06:20:00.101Z,1019.22
2017-11-15T06:20:40.719Z,1019.27
2017-11-15T06:21:21.283Z,1019.23
2017-11-15T06:22:01.884Z,1019.28
2017-11-15T06:22:42.480Z,1019.26
2017-11-15T06:23:23.068Z,1019.25
2017-11-15T06:24:03.676Z,1019.29
2017-11-15T06:24:44.294Z,1019.27
2017-11-15T06:25:24.825Z,1019.31
2017-11-15T06:26:05.312Z,1019.28
2017-11-15T06:26:45.960Z,1019.26
2017-11-15T06:27:26.610Z,1019.27
2017-11-15T06:28:07.192Z,1019.22
2017-11-15T06:28:47.763Z,1019.22
2017-11-15T06:29:28.399Z,1019.31
2017-11-15T06:30:08.940Z,1019.29
2017-11-15T06:30:49.516Z,1019.3
2017-11-15T06:31:30.020Z,1019.29
2017-11-15T06:32:10.666Z,1019.28
2017-11-15T06:32:51.365Z,1019.32
2017-11-15T06:33:31.941Z,1019.35
2017-11-15T06:34:12.506Z,1019.34
2017-11-15T06:34:53.089Z,1019.35
2017-11-15T06:35:33.630Z,1019.37
2017-11-15T06:36:14.366Z,1019.33
2017-11-15T06:36:54.840Z,1019.33
2017-11-15T06:37:35.399Z,1019.29
2017-11-15T06:38:15.964Z,1019.34
2017-11-15T06:38:56.530Z,1019.31
2017-11-15T06:39:37.080Z,1019.35
2017-11-15T06:40:17.660Z,1019.4
2017-11-15T06:40:58.234Z,1019.4
2017-11-15T06:41:39.036Z,1019.39
2017-11-15T06:42:19.608Z,1019.37
2017-11-15T06:43:00.168Z,1019.35
2017-11-15T06:43:40.870Z,1019.36
2017-11-15T06:44:21.907Z,1019.4
2017-11-15T06:45:02.484Z,1019.38
2017-11-15T06:45:43.057Z,1019.37
2017-11-15T06:46:23.640Z,1019.41
2017-11-15T06:47:04.200Z,1019.4
2017-11-15T06:47:44.758Z,1019.38
2017-11-15T06:48:25.316Z,1019.43
2017-11-15T06:49:05.873Z,1019.39
2017-11-15T06:49:46.447Z,1019.35
2017-11-15T06:50:27.009Z,1019.38
2017-11-15T06:51:07.599Z,1019.32
2017-11-15T06:51:48.287Z,1019.33
2017-11-15T06:52:28.965Z,1019.37
2017-11-15T06:53:09.553Z,1019.37
2017-11-15T06:53:50.173Z,1019.39
2017-11-15T06:54:30.788Z,1019.38
2017-11-15T06:55:11.409Z,1019.42
2017-11-15T06:55:52.021Z,1019.43
2017-11-15T06:56:32.587Z,1019.44
2017-11-15T06:57:13.179Z,1019.42
2017-11-15T06:57:53.748Z,1019.41
2017-11-15T06:58:34.307Z,1019.45
2017-11-15T06:59:14.887Z,1019.46
2017-11-15T06:59:55.452Z,1019.4
2017-11-15T07:00:36.038Z,1019.43
2017-11-15T07:01:16.588Z,1019.45
2017-11-15T07:01:57.176Z,1019.45
2017-11-15T07:02:37.921Z,1019.41
2017-11-15T07:03:18.484Z,1019.43
2017-11-15T07:03:59.745Z,1019.48
2017-11-15T07:04:40.315Z,1019.46
2017-11-15T07:05:20.901Z,1019.49
2017-11-15T07:06:01.491Z,1019.5
2017-11-15T07:06:42.067Z,1019.54
2017-11-15T07:07:22.679Z,1019.55
2017-11-15T07:08:03.255Z,1019.56
2017-11-15T07:08:43.852Z,1019.56
2017-11-15T07:09:24.467Z,1019.55
2017-11-15T07:10:05.142Z,1019.56
2017-11-15T07:10:46.100Z,1019.59
2017-11-15T07:11:26.878Z,1019.61
2017-11-15T07:12:07.490Z,1019.58
2017-11-15T07:12:48.137Z,1019.56
2017-11-15T07:13:28.649Z,1019.57
2017-11-15T07:14:09.235Z,1019.61
2017-11-15T07:14:49.835Z,1019.54
2017-11-15T07:15:30.411Z,1019.56
2017-11-15T07:16:10.979Z,1019.51
2017-11-15T07:16:51.544Z,1019.53
2017-11-15T07:17:32.135Z,1019.54
2017-11-15T07:18:12.749Z,1019.52
2017-11-15T07:18:53.324Z,1019.54
2017-11-15T07:19:33.894Z,1019.54
2017-11-15T07:20:14.473Z,1019.54
2017-11-15T07:20:55.064Z,1019.55
2017-11-15T07:21:35.642Z,1019.58
2017-11-15T07:22:16.228Z,1019.53
2017-11-15T07:22:56.814Z,1019.56
2017-11-15T07:23:37.410Z,1019.61
2017-11-15T07:24:18.039Z,1019.6
2017-11-15T07:24:58.611Z,1019.64
2017-11-15T07:25:39.182Z,1019.64
2017-11-15T07:26:19.767Z,1019.59
2017-11-15T07:27:00.355Z,1019.58
2017-11-15T07:27:40.939Z,1019.61
2017-11-15T07:28:21.501Z,1019.58
2017-11-15T07:29:02.073Z,1019.59
2017-11-15T07:29:42.652Z,1019.63
2017-11-15T07:30:23.240Z,1019.56
2017-11-15T07:31:03.862Z,1019.57
2017-11-15T07:31:44.453Z,1019.58
2017-11-15T07:32:25.029Z,1019.57
2017-11-15T07:33:05.626Z,1019.55
2017-11-15T07:33:46.238Z,1019.56
2017-11-15T07:34:26.782Z,1019.55
2017-11-15T07:35:07.340Z,1019.53
2017-11-15T07:35:47.913Z,1019.52
2017-11-15T07:36:28.527Z,1019.56
2017-11-15T07:37:09.114Z,1019.57
2017-11-15T07:37:49.682Z,1019.58
2017-11-15T07:38:30.311Z,1019.6
2017-11-15T07:39:10.875Z,1019.64
2017-11-15T07:39:51.508Z,1019.67
2017-11-15T07:40:32.082Z,1019.64
2017-11-15T07:41:12.665Z,1019.68
2017-11-15T07:41:53.264Z,1019.66
2017-11-15T07:42:33.840Z,1019.64
2017-11-15T07:43:14.421Z,1019.66
2017-11-15T07:43:54.993Z,1019.66
2017-11-15T07:44:35.567Z,1019.64
2017-11-15T07:45:16.150Z,1019.62
2017-11-15T07:45:56.813Z,1019.66
2017-11-15T07:46:37.410Z,1019.7
2017-11-15T07:47:17.985Z,1019.67
2017-11-15T07:47:58.576Z,1019.69
2017-11-15T07:48:39.163Z,1019.69
2017-11-15T07:49:19.731Z,1019.63
2017-11-15T07:50:00.315Z,1019.7
2017-11-15T07:50:40.913Z,1019.72
2017-11-15T07:51:21.474Z,1019.69
2017-11-15T07:52:02.061Z,1019.7
2017-11-15T07:52:42.664Z,1019.68
2017-11-15T07:53:23.262Z,1019.69
2017-11-15T07:54:03.831Z,1019.68
2017-11-15T07:54:44.409Z,1019.65
2017-11-15T07:55:25.163Z,1019.7
2017-11-15T07:56:05.738Z,1019.69
2017-11-15T07:56:46.327Z,1019.67
2017-11-15T07:57:26.895Z,1019.69
2017-11-15T07:58:07.519Z,1019.67
2017-11-15T07:58:48.076Z,1019.68
2017-11-15T07:59:28.646Z,1019.66
2017-11-15T08:00:09.235Z,1019.71
2017-11-15T08:00:49.879Z,1019.68
2017-11-15T08:01:30.644Z,1019.74
2017-11-15T08:02:11.235Z,1019.74
2017-11-15T08:02:51.953Z,1019.7
2017-11-15T08:03:32.653Z,1019.71
2017-11-15T08:04:13.247Z,1019.74
2017-11-15T08:04:53.864Z,1019.73
2017-11-15T08:05:34.433Z,1019.78
2017-11-15T08:08:02.486Z,1019.86
2017-11-15T08:08:43.091Z,1019.82
2017-11-15T08:09:23.670Z,1019.8
2017-11-15T08:10:04.231Z,1019.83
2017-11-15T08:10:44.795Z,1019.85
2017-11-15T08:11:25.376Z,1019.83
2017-11-15T08:12:05.941Z,1019.8
2017-11-15T08:12:46.555Z,1019.82
2017-11-15T08:13:27.091Z,1019.86
2017-11-15T08:14:07.681Z,1019.87
2017-11-15T08:14:48.244Z,1019.84